sensor_id;sensor_type;location;lat;lon;timestamp;pressure;altitude;pressure_sealevel;temperature;humidity
71573;BME280;59408;51.032;9.410;2023-01-29T00:00:22;100363.22;;;-5.03;98.78
71573;BME280;59408;51.032;9.410;2023-01-29T00:02:49;100347.25;;;-5.09;99.64
71573;BME280;59408;51.032;9.410;2023-01-29T00:05:16;100348.28;;;-5.10;100.00
71573;BME280;59408;51.032;9.410;2023-01-29T00:07:53;100344.81;;;-5.11;100.00
71573;BME280;59408;51.032;9.410;2023-01-29T00:10:22;100342.75;;;-5.16;100.00
71573;BME280;59408;51.032;9.410;2023-01-29T00:12:49;100341.31;;;-5.18;100.00
71573;BME280;59408;51.032;9.410;2023-01-29T00:15:16;100342.97;;;-5.24;100.00
71573;BME280;59408;51.032;9.410;2023-01-29T00:17:43;100340.09;;;-5.29;100.00
71573;BME280;59408;51.032;9.410;2023-01-29T00:20:10;100332.72;;;-5.33;100.00
71573;BME280;59408;51.032;9.410;2023-01-29T00:22:37;100327.81;;;-5.36;100.00
71573;BME280;59408;51.032;9.410;2023-01-29T00:25:04;100327.41;;;-5.40;100.00
71573;BME280;59408;51.032;9.410;2023-01-29T00:27:32;100325.34;;;-5.44;100.00
71573;BME280;59408;51.032;9.410;2023-01-29T00:29:59;100321.88;;;-5.45;100.00
71573;BME280;59408;51.032;9.410;2023-01-29T00:32:25;100311.03;;;-5.50;100.00
71573;BME280;59408;51.032;9.410;2023-01-29T00:34:52;100312.88;;;-5.57;100.00
71573;BME280;59408;51.032;9.410;2023-01-29T00:37:18;100313.66;;;-5.63;100.00
71573;BME280;59408;51.032;9.410;2023-01-29T00:39:45;100318.78;;;-5.68;100.00
71573;BME280;59408;51.032;9.410;2023-01-29T00:42:13;100307.13;;;-5.74;100.00
71573;BME280;59408;51.032;9.410;2023-01-29T00:44:42;100297.53;;;-5.75;100.00
71573;BME280;59408;51.032;9.410;2023-01-29T00:47:08;100309.34;;;-5.77;100.00
71573;BME280;59408;51.032;9.410;2023-01-29T00:49:35;100301.16;;;-5.82;100.00
71573;BME280;59408;51.032;9.410;2023-01-29T00:52:02;100293.19;;;-5.89;100.00
71573;BME280;59408;51.032;9.410;2023-01-29T00:54:28;100295.44;;;-5.93;100.00
71573;BME280;59408;51.032;9.410;2023-01-29T00:56:58;100284.97;;;-6.01;100.00
71573;BME280;59408;51.032;9.410;2023-01-29T00:59:25;100286.41;;;-6.05;100.00
71573;BME280;59408;51.032;9.410;2023-01-29T01:01:53;100284.16;;;-6.08;100.00
71573;BME280;59408;51.032;9.410;2023-01-29T01:04:19;100278.44;;;-6.11;100.00
71573;BME280;59408;51.032;9.410;2023-01-29T01:06:46;100283.31;;;-6.15;100.00
71573;BME280;59408;51.032;9.410;2023-01-29T01:09:12;100284.53;;;-6.17;100.00
71573;BME280;59408;51.032;9.410;2023-01-29T01:11:39;100284.94;;;-6.20;100.00
71573;BME280;59408;51.032;9.410;2023-01-29T01:14:06;100278.38;;;-6.24;100.00
71573;BME280;59408;51.032;9.410;2023-01-29T01:16:32;100275.09;;;-6.27;100.00
71573;BME280;59408;51.032;9.410;2023-01-29T01:19:01;100272.84;;;-6.30;100.00
71573;BME280;59408;51.032;9.410;2023-01-29T01:21:28;100266.09;;;-6.32;100.00
71573;BME280;59408;51.032;9.410;2023-01-29T01:23:55;100274.44;;;-6.35;100.00
71573;BME280;59408;51.032;9.410;2023-01-29T01:26:21;100279.94;;;-6.37;100.00
71573;BME280;59408;51.032;9.410;2023-01-29T01:28:48;100282.84;;;-6.38;100.00
71573;BME280;59408;51.032;9.410;2023-01-29T01:31:15;100288.09;;;-6.45;100.00
71573;BME280;59408;51.032;9.410;2023-01-29T01:33:41;100291.16;;;-6.48;100.00
71573;BME280;59408;51.032;9.410;2023-01-29T01:36:09;100297.66;;;-6.50;100.00
71573;BME280;59408;51.032;9.410;2023-01-29T01:38:36;100299.06;;;-6.54;100.00
71573;BME280;59408;51.032;9.410;2023-01-29T01:41:03;100300.28;;;-6.57;100.00
71573;BME280;59408;51.032;9.410;2023-01-29T01:43:46;100305.78;;;-6.58;100.00
71573;BME280;59408;51.032;9.410;2023-01-29T01:46:12;100306.44;;;-6.56;100.00
71573;BME280;59408;51.032;9.410;2023-01-29T01:48:39;100310.72;;;-6.55;100.00
71573;BME280;59408;51.032;9.410;2023-01-29T01:51:06;100306.44;;;-6.56;100.00
71573;BME280;59408;51.032;9.410;2023-01-29T01:53:37;100306.44;;;-6.56;100.00
71573;BME280;59408;51.032;9.410;2023-01-29T01:56:07;100307.25;;;-6.56;100.00
71573;BME280;59408;51.032;9.410;2023-01-29T01:58:38;100302.13;;;-6.57;100.00
71573;BME280;59408;51.032;9.410;2023-01-29T02:01:07;100305.16;;;-6.60;100.00
71573;BME280;59408;51.032;9.410;2023-01-29T02:03:36;100308.00;;;-6.62;100.00
71573;BME280;59408;51.032;9.410;2023-01-29T02:06:07;100303.94;;;-6.64;100.00
71573;BME280;59408;51.032;9.410;2023-01-29T02:08:41;100301.84;;;-6.69;100.00
71573;BME280;59408;51.032;9.410;2023-01-29T02:11:09;100293.91;;;-6.69;100.00
71573;BME280;59408;51.032;9.410;2023-01-29T02:13:36;100294.28;;;-6.72;100.00
71573;BME280;59408;51.032;9.410;2023-01-29T02:16:02;100293.03;;;-6.76;100.00
71573;BME280;59408;51.032;9.410;2023-01-29T02:18:29;100292.22;;;-6.77;100.00
71573;BME280;59408;51.032;9.410;2023-01-29T02:21:14;100293.63;;;-6.81;100.00
71573;BME280;59408;51.032;9.410;2023-01-29T02:24:03;100295.84;;;-6.84;100.00
71573;BME280;59408;51.032;9.410;2023-01-29T02:26:49;100294.84;;;-6.83;100.00
71573;BME280;59408;51.032;9.410;2023-01-29T02:29:22;100279.53;;;-6.81;100.00
71573;BME280;59408;51.032;9.410;2023-01-29T02:32:03;100280.78;;;-6.77;100.00
71573;BME280;59408;51.032;9.410;2023-01-29T02:34:39;100277.75;;;-6.74;100.00
71573;BME280;59408;51.032;9.410;2023-01-29T02:37:12;100286.13;;;-6.71;100.00
71573;BME280;59408;51.032;9.410;2023-01-29T02:39:45;100276.97;;;-6.68;100.00
71573;BME280;59408;51.032;9.410;2023-01-29T02:42:22;100262.69;;;-6.67;100.00
71573;BME280;59408;51.032;9.410;2023-01-29T02:44:54;100262.69;;;-6.67;100.00
71573;BME280;59408;51.032;9.410;2023-01-29T02:47:29;100269.84;;;-6.68;100.00
71573;BME280;59408;51.032;9.410;2023-01-29T02:50:02;100276.16;;;-6.69;100.00
71573;BME280;59408;51.032;9.410;2023-01-29T02:52:34;100271.84;;;-6.70;100.00
71573;BME280;59408;51.032;9.410;2023-01-29T02:55:05;100266.56;;;-6.70;100.00
71573;BME280;59408;51.032;9.410;2023-01-29T02:57:36;100271.03;;;-6.70;100.00
71573;BME280;59408;51.032;9.410;2023-01-29T03:00:11;100271.84;;;-6.70;100.00
71573;BME280;59408;51.032;9.410;2023-01-29T03:02:43;100264.09;;;-6.71;100.00
71573;BME280;59408;51.032;9.410;2023-01-29T03:05:17;100264.72;;;-6.69;100.00
71573;BME280;59408;51.032;9.410;2023-01-29T03:07:49;100260.41;;;-6.70;100.00
71573;BME280;59408;51.032;9.410;2023-01-29T03:10:22;100263.28;;;-6.72;100.00
71573;BME280;59408;51.032;9.410;2023-01-29T03:12:52;100273.28;;;-6.74;100.00
71573;BME280;59408;51.032;9.410;2023-01-29T03:15:27;100278.59;;;-6.74;100.00
71573;BME280;59408;51.032;9.410;2023-01-29T03:17:57;100286.72;;;-6.75;100.00
71573;BME280;59408;51.032;9.410;2023-01-29T03:20:29;100285.91;;;-6.76;100.00
71573;BME280;59408;51.032;9.410;2023-01-29T03:23:02;100288.56;;;-6.76;100.00
71573;BME280;59408;51.032;9.410;2023-01-29T03:25:30;100292.84;;;-6.75;100.00
71573;BME280;59408;51.032;9.410;2023-01-29T03:28:02;100288.38;;;-6.74;100.00
71573;BME280;59408;51.032;9.410;2023-01-29T03:30:33;100285.28;;;-6.78;100.00
71573;BME280;59408;51.032;9.410;2023-01-29T03:33:05;100288.13;;;-6.79;100.00
71573;BME280;59408;51.032;9.410;2023-01-29T03:35:37;100299.13;;;-6.82;100.00
71573;BME280;59408;51.032;9.410;2023-01-29T03:38:08;100288.91;;;-6.85;100.00
71573;BME280;59408;51.032;9.410;2023-01-29T03:40:42;100280.75;;;-6.90;100.00
71573;BME280;59408;51.032;9.410;2023-01-29T03:43:14;100276.25;;;-6.90;100.00
71573;BME280;59408;51.032;9.410;2023-01-29T03:45:55;100280.75;;;-6.90;100.00
71573;BME280;59408;51.032;9.410;2023-01-29T03:48:31;100278.88;;;-6.96;100.00
71573;BME280;59408;51.032;9.410;2023-01-29T03:51:07;100291.91;;;-7.01;100.00
71573;BME280;59408;51.032;9.410;2023-01-29T03:53:41;100286.16;;;-7.05;100.00
71573;BME280;59408;51.032;9.410;2023-01-29T03:56:20;100284.72;;;-7.08;100.00
71573;BME280;59408;51.032;9.410;2023-01-29T03:58:55;100284.47;;;-7.13;100.00
71573;BME280;59408;51.032;9.410;2023-01-29T04:01:29;100303.22;;;-7.14;100.00
71573;BME280;59408;51.032;9.410;2023-01-29T04:04:03;100306.25;;;-7.17;100.00
71573;BME280;59408;51.032;9.410;2023-01-29T04:06:33;100304.59;;;-7.18;100.00
71573;BME280;59408;51.032;9.410;2023-01-29T04:09:04;100301.13;;;-7.19;100.00
71573;BME280;59408;51.032;9.410;2023-01-29T04:11:35;100295.59;;;-7.24;100.00
71573;BME280;59408;51.032;9.410;2023-01-29T04:14:03;100292.31;;;-7.26;100.00
71573;BME280;59408;51.032;9.410;2023-01-29T04:16:36;100288.44;;;-7.30;100.00
71573;BME280;59408;51.032;9.410;2023-01-29T04:19:04;100279.03;;;-7.32;100.00
71573;BME280;59408;51.032;9.410;2023-01-29T04:21:31;100267.78;;;-7.34;100.00
71573;BME280;59408;51.032;9.410;2023-01-29T04:23:58;100277.75;;;-7.36;100.00
71573;BME280;59408;51.032;9.410;2023-01-29T04:26:36;100271.03;;;-7.39;100.00
71573;BME280;59408;51.032;9.410;2023-01-29T04:29:19;100281.00;;;-7.41;100.00
71573;BME280;59408;51.032;9.410;2023-01-29T04:31:56;100259.16;;;-7.43;100.00
71573;BME280;59408;51.032;9.410;2023-01-29T04:34:27;100247.34;;;-7.47;100.00
71573;BME280;59408;51.032;9.410;2023-01-29T04:37:03;100236.47;;;-7.52;100.00
71573;BME280;59408;51.032;9.410;2023-01-29T04:39:39;100241.13;;;-7.54;100.00
71573;BME280;59408;51.032;9.410;2023-01-29T04:42:12;100256.22;;;-7.55;100.00
71573;BME280;59408;51.032;9.410;2023-01-29T04:44:45;100247.66;;;-7.57;100.00
71573;BME280;59408;51.032;9.410;2023-01-29T04:47:20;100235.44;;;-7.58;100.00
71573;BME280;59408;51.032;9.410;2023-01-29T04:49:55;100229.88;;;-7.63;100.00
71573;BME280;59408;51.032;9.410;2023-01-29T04:52:32;100227.41;;;-7.64;100.00
71573;BME280;59408;51.032;9.410;2023-01-29T04:55:06;100241.88;;;-7.67;100.00
71573;BME280;59408;51.032;9.410;2023-01-29T04:57:42;100243.88;;;-7.69;100.00
71573;BME280;59408;51.032;9.410;2023-01-29T05:00:17;100240.41;;;-7.69;100.00
71573;BME280;59408;51.032;9.410;2023-01-29T05:02:46;100236.94;;;-7.70;100.00
71573;BME280;59408;51.032;9.410;2023-01-29T05:05:15;100242.25;;;-7.70;100.00
71573;BME280;59408;51.032;9.410;2023-01-29T05:07:45;100238.59;;;-7.69;100.00
71573;BME280;59408;51.032;9.410;2023-01-29T05:10:14;100223.88;;;-7.71;100.00
71573;BME280;59408;51.032;9.410;2023-01-29T05:12:47;100225.13;;;-7.74;100.00
71573;BME280;59408;51.032;9.410;2023-01-29T05:15:18;100223.25;;;-7.73;100.00
71573;BME280;59408;51.032;9.410;2023-01-29T05:17:46;100233.25;;;-7.75;100.00
71573;BME280;59408;51.032;9.410;2023-01-29T05:20:13;100220.81;;;-7.75;100.00
71573;BME280;59408;51.032;9.410;2023-01-29T05:22:41;100215.72;;;-7.76;100.00
71573;BME280;59408;51.032;9.410;2023-01-29T05:25:19;100223.66;;;-7.76;100.00
71573;BME280;59408;51.032;9.410;2023-01-29T05:27:48;100208.78;;;-7.77;100.00
71573;BME280;59408;51.032;9.410;2023-01-29T05:30:15;100216.28;;;-7.81;100.00
71573;BME280;59408;51.032;9.410;2023-01-29T05:32:42;100211.16;;;-7.83;100.00
71573;BME280;59408;51.032;9.410;2023-01-29T05:35:10;100210.38;;;-7.83;100.00
71573;BME280;59408;51.032;9.410;2023-01-29T05:37:37;100201.38;;;-7.82;100.00
71573;BME280;59408;51.032;9.410;2023-01-29T05:40:04;100189.38;;;-7.85;100.00
71573;BME280;59408;51.032;9.410;2023-01-29T05:42:31;100183.44;;;-7.87;100.00
71573;BME280;59408;51.032;9.410;2023-01-29T05:44:58;100177.31;;;-7.87;100.00
71573;BME280;59408;51.032;9.410;2023-01-29T05:47:24;100175.31;;;-7.85;100.00
71573;BME280;59408;51.032;9.410;2023-01-29T05:49:51;100174.91;;;-7.82;100.00
71573;BME280;59408;51.032;9.410;2023-01-29T05:52:19;100177.56;;;-7.82;100.00
71573;BME280;59408;51.032;9.410;2023-01-29T05:54:48;100176.56;;;-7.81;100.00
71573;BME280;59408;51.032;9.410;2023-01-29T05:57:15;100188.78;;;-7.80;100.00
71573;BME280;59408;51.032;9.410;2023-01-29T05:59:41;100196.53;;;-7.78;100.00
71573;BME280;59408;51.032;9.410;2023-01-29T06:02:08;100185.38;;;-7.74;100.00
71573;BME280;59408;51.032;9.410;2023-01-29T06:04:35;100195.56;;;-7.71;100.00
71573;BME280;59408;51.032;9.410;2023-01-29T06:07:01;100192.09;;;-7.71;100.00
71573;BME280;59408;51.032;9.410;2023-01-29T06:09:29;100195.75;;;-7.72;100.00
71573;BME280;59408;51.032;9.410;2023-01-29T06:11:56;100184.56;;;-7.74;100.00
71573;BME280;59408;51.032;9.410;2023-01-29T06:14:22;100198.38;;;-7.79;100.00
71573;BME280;59408;51.032;9.410;2023-01-29T06:16:49;100188.78;;;-7.80;100.00
71573;BME280;59408;51.032;9.410;2023-01-29T06:19:18;100193.06;;;-7.79;100.00
71573;BME280;59408;51.032;9.410;2023-01-29T06:21:44;100202.03;;;-7.80;100.00
71573;BME280;59408;51.032;9.410;2023-01-29T06:24:11;100224.22;;;-7.81;100.00
71573;BME280;59408;51.032;9.410;2023-01-29T06:26:39;100229.69;;;-7.83;100.00
71573;BME280;59408;51.032;9.410;2023-01-29T06:29:06;100237.63;;;-7.83;100.00
71573;BME280;59408;51.032;9.410;2023-01-29T06:31:32;100248.44;;;-7.84;100.00
71573;BME280;59408;51.032;9.410;2023-01-29T06:34:04;100251.50;;;-7.81;100.00
71573;BME280;59408;51.032;9.410;2023-01-29T06:36:31;100246.66;;;-7.77;100.00
71573;BME280;59408;51.032;9.410;2023-01-29T06:38:58;100246.03;;;-7.79;100.00
71573;BME280;59408;51.032;9.410;2023-01-29T06:41:25;100258.44;;;-7.80;100.00
71573;BME280;59408;51.032;9.410;2023-01-29T06:43:53;100254.34;;;-7.82;100.00
71573;BME280;59408;51.032;9.410;2023-01-29T06:46:20;100258.41;;;-7.86;100.00
71573;BME280;59408;51.032;9.410;2023-01-29T06:48:46;100252.09;;;-7.85;100.00
71573;BME280;59408;51.032;9.410;2023-01-29T06:51:13;100252.91;;;-7.85;100.00
71573;BME280;59408;51.032;9.410;2023-01-29T06:53:40;100253.75;;;-7.84;100.00
71573;BME280;59408;51.032;9.410;2023-01-29T06:56:08;100246.22;;;-7.81;100.00
71573;BME280;59408;51.032;9.410;2023-01-29T06:58:35;100245.66;;;-7.76;100.00
71573;BME280;59408;51.032;9.410;2023-01-29T07:01:05;100249.38;;;-7.70;100.00
71573;BME280;59408;51.032;9.410;2023-01-29T07:03:32;100259.81;;;-7.62;100.00
71573;BME280;59408;51.032;9.410;2023-01-29T07:05:59;100269.47;;;-7.55;100.00
71573;BME280;59408;51.032;9.410;2023-01-29T07:08:26;100272.19;;;-7.48;100.00
71573;BME280;59408;51.032;9.410;2023-01-29T07:10:52;100268.75;;;-7.42;100.00
71573;BME280;59408;51.032;9.410;2023-01-29T07:13:19;100273.91;;;-7.34;100.00
71573;BME280;59408;51.032;9.410;2023-01-29T07:15:46;100273.97;;;-7.27;100.00
71573;BME280;59408;51.032;9.410;2023-01-29T07:18:14;100274.22;;;-7.22;100.00
71573;BME280;59408;51.032;9.410;2023-01-29T07:20:41;100280.38;;;-7.15;100.00
71573;BME280;59408;51.032;9.410;2023-01-29T07:23:10;100285.34;;;-7.06;100.00
71573;BME280;59408;51.032;9.410;2023-01-29T07:25:37;100285.78;;;-7.02;100.00
71573;BME280;59408;51.032;9.410;2023-01-29T07:28:04;100300.09;;;-6.96;100.00
71573;BME280;59408;51.032;9.410;2023-01-29T07:30:31;100306.25;;;-6.89;100.00
71573;BME280;59408;51.032;9.410;2023-01-29T07:33:00;100297.69;;;-6.85;100.00
71573;BME280;59408;51.032;9.410;2023-01-29T07:35:28;100270.19;;;-6.77;100.00
71573;BME280;59408;51.032;9.410;2023-01-29T07:37:55;100257.78;;;-6.70;100.00
71573;BME280;59408;51.032;9.410;2023-01-29T07:40:22;100244.75;;;-6.65;100.00
71573;BME280;59408;51.032;9.410;2023-01-29T07:42:48;100236.81;;;-6.58;100.00
71573;BME280;59408;51.032;9.410;2023-01-29T07:45:15;100236.25;;;-6.47;100.00
71573;BME280;59408;51.032;9.410;2023-01-29T07:47:42;100233.41;;;-6.39;100.00
71573;BME280;59408;51.032;9.410;2023-01-29T07:50:09;100254.28;;;-6.30;100.00
71573;BME280;59408;51.032;9.410;2023-01-29T07:52:37;100258.19;;;-6.19;100.00
71573;BME280;59408;51.032;9.410;2023-01-29T07:55:04;100235.72;;;-6.10;100.00
71573;BME280;59408;51.032;9.410;2023-01-29T07:57:31;100234.13;;;-6.04;100.00
71573;BME280;59408;51.032;9.410;2023-01-29T07:59:58;100233.53;;;-5.93;100.00
71573;BME280;59408;51.032;9.410;2023-01-29T08:02:24;100230.69;;;-5.78;100.00
71573;BME280;59408;51.032;9.410;2023-01-29T08:04:51;100233.56;;;-5.67;100.00
71573;BME280;59408;51.032;9.410;2023-01-29T08:07:18;100226.41;;;-5.46;100.00
71573;BME280;59408;51.032;9.410;2023-01-29T08:09:46;100222.50;;;-5.31;100.00
71573;BME280;59408;51.032;9.410;2023-01-29T08:12:13;100219.41;;;-5.21;100.00
71573;BME280;59408;51.032;9.410;2023-01-29T08:14:40;100228.38;;;-5.09;100.00
71573;BME280;59408;51.032;9.410;2023-01-29T08:17:07;100254.16;;;-5.03;100.00
71573;BME280;59408;51.032;9.410;2023-01-29T08:19:33;100243.31;;;-4.95;100.00
71573;BME280;59408;51.032;9.410;2023-01-29T08:22:00;100236.94;;;-4.87;100.00
71573;BME280;59408;51.032;9.410;2023-01-29T08:24:26;100242.03;;;-4.79;100.00
71573;BME280;59408;51.032;9.410;2023-01-29T08:27:14;100256.34;;;-4.67;100.00
71573;BME280;59408;51.032;9.410;2023-01-29T08:29:41;100262.63;;;-4.55;99.27
71573;BME280;59408;51.032;9.410;2023-01-29T08:32:08;100267.94;;;-4.48;98.71
71573;BME280;59408;51.032;9.410;2023-01-29T08:34:35;100263.59;;;-4.43;98.39
71573;BME280;59408;51.032;9.410;2023-01-29T08:37:01;100278.56;;;-4.42;98.21
71573;BME280;59408;51.032;9.410;2023-01-29T08:39:28;100283.28;;;-4.37;98.46
71573;BME280;59408;51.032;9.410;2023-01-29T08:41:55;100286.50;;;-4.35;98.36
71573;BME280;59408;51.032;9.410;2023-01-29T08:44:22;100267.47;;;-4.32;97.98
71573;BME280;59408;51.032;9.410;2023-01-29T08:46:49;100266.03;;;-4.28;98.02
71573;BME280;59408;51.032;9.410;2023-01-29T08:49:16;100269.47;;;-4.21;98.70
71573;BME280;59408;51.032;9.410;2023-01-29T08:51:42;100262.66;;;-4.17;97.84
71573;BME280;59408;51.032;9.410;2023-01-29T08:54:09;100254.66;;;-4.10;97.58
71573;BME280;59408;51.032;9.410;2023-01-29T08:56:35;100258.91;;;-4.03;96.91
71573;BME280;59408;51.032;9.410;2023-01-29T08:59:02;100256.63;;;-3.99;96.39
71573;BME280;59408;51.032;9.410;2023-01-29T09:01:30;100258.25;;;-3.91;96.97
71573;BME280;59408;51.032;9.410;2023-01-29T09:03:57;100242.03;;;-3.90;95.75
71573;BME280;59408;51.032;9.410;2023-01-29T09:06:23;100244.44;;;-3.82;95.60
71573;BME280;59408;51.032;9.410;2023-01-29T09:08:50;100224.53;;;-3.79;95.16
71573;BME280;59408;51.032;9.410;2023-01-29T09:11:16;100223.44;;;-3.72;95.30
71573;BME280;59408;51.032;9.410;2023-01-29T09:13:43;100234.91;;;-3.65;94.57
71573;BME280;59408;51.032;9.410;2023-01-29T09:16:10;100236.91;;;-3.60;94.01
71573;BME280;59408;51.032;9.410;2023-01-29T09:18:38;100242.00;;;-3.58;93.77
71573;BME280;59408;51.032;9.410;2023-01-29T09:21:04;100234.44;;;-3.61;93.42
71573;BME280;59408;51.032;9.410;2023-01-29T09:23:31;100220.69;;;-3.58;93.12
71573;BME280;59408;51.032;9.410;2023-01-29T09:25:58;100221.72;;;-3.59;93.36
71573;BME280;59408;51.032;9.410;2023-01-29T09:28:25;100223.16;;;-3.64;93.04
71573;BME280;59408;51.032;9.410;2023-01-29T09:30:52;100223.34;;;-3.58;94.12
71573;BME280;59408;51.032;9.410;2023-01-29T09:33:19;100219.66;;;-3.57;93.35
71573;BME280;59408;51.032;9.410;2023-01-29T09:35:47;100226.16;;;-3.53;93.61
71573;BME280;59408;51.032;9.410;2023-01-29T09:38:13;100220.19;;;-3.49;92.95
71573;BME280;59408;51.032;9.410;2023-01-29T09:40:50;100211.25;;;-3.36;92.78
71573;BME280;59408;51.032;9.410;2023-01-29T09:43:22;100210.53;;;-3.25;91.85
71573;BME280;59408;51.032;9.410;2023-01-29T09:45:53;100209.22;;;-3.16;90.39
71573;BME280;59408;51.032;9.410;2023-01-29T09:48:26;100212.38;;;-3.01;90.42
71573;BME280;59408;51.032;9.410;2023-01-29T09:50:57;100218.44;;;-2.94;90.43
71573;BME280;59408;51.032;9.410;2023-01-29T09:53:29;100220.91;;;-2.92;89.00
71573;BME280;59408;51.032;9.410;2023-01-29T09:56:03;100220.91;;;-2.92;89.11
71573;BME280;59408;51.032;9.410;2023-01-29T09:58:33;100223.03;;;-3.01;88.73
71573;BME280;59408;51.032;9.410;2023-01-29T10:01:08;100211.63;;;-2.90;89.54
71573;BME280;59408;51.032;9.410;2023-01-29T10:03:56;100215.09;;;-2.71;89.69
71573;BME280;59408;51.032;9.410;2023-01-29T10:06:40;100217.25;;;-2.61;88.36
71573;BME280;59408;51.032;9.410;2023-01-29T10:15:14;100200.63;;;-2.81;87.40
71573;BME280;59408;51.032;9.410;2023-01-29T10:18:04;100193.16;;;-2.91;87.99
71573;BME280;59408;51.032;9.410;2023-01-29T10:20:56;100204.19;;;-2.88;88.03
71573;BME280;59408;51.032;9.410;2023-01-29T10:23:32;100201.84;;;-2.77;87.72
71573;BME280;59408;51.032;9.410;2023-01-29T10:26:00;100208.00;;;-2.77;88.17
71573;BME280;59408;51.032;9.410;2023-01-29T10:28:33;100195.81;;;-2.73;87.95
71573;BME280;59408;51.032;9.410;2023-01-29T10:31:06;100200.94;;;-2.71;87.64
71573;BME280;59408;51.032;9.410;2023-01-29T10:33:37;100204.06;;;-2.74;87.84
71573;BME280;59408;51.032;9.410;2023-01-29T10:36:30;100190.56;;;-2.79;87.89
71573;BME280;59408;51.032;9.410;2023-01-29T10:38:59;100190.25;;;-2.71;87.52
71573;BME280;59408;51.032;9.410;2023-01-29T10:41:40;100185.88;;;-2.66;87.34
71573;BME280;59408;51.032;9.410;2023-01-29T10:44:16;100175.75;;;-2.45;88.34
71573;BME280;59408;51.032;9.410;2023-01-29T10:46:59;100168.56;;;-2.45;87.55
71573;BME280;59408;51.032;9.410;2023-01-29T10:49:41;100170.13;;;-2.26;87.02
71573;BME280;59408;51.032;9.410;2023-01-29T10:52:25;100166.09;;;-2.17;85.68
71573;BME280;59408;51.032;9.410;2023-01-29T10:55:04;100154.38;;;-2.16;85.70
71573;BME280;59408;51.032;9.410;2023-01-29T10:57:50;100151.34;;;-2.19;85.96
71573;BME280;59408;51.032;9.410;2023-01-29T11:00:21;100147.38;;;-2.28;85.72
71573;BME280;59408;51.032;9.410;2023-01-29T11:02:50;100140.31;;;-2.23;86.06
71573;BME280;59408;51.032;9.410;2023-01-29T11:05:22;100127.88;;;-2.17;86.43
71573;BME280;59408;51.032;9.410;2023-01-29T11:07:58;100115.25;;;-2.10;86.31
71573;BME280;59408;51.032;9.410;2023-01-29T11:10:31;100112.25;;;-2.02;86.14
71573;BME280;59408;51.032;9.410;2023-01-29T11:12:58;100108.25;;;-1.99;85.42
71573;BME280;59408;51.032;9.410;2023-01-29T11:15:28;100098.72;;;-2.07;85.58
71573;BME280;59408;51.032;9.410;2023-01-29T11:18:00;100095.47;;;-2.09;85.85
71573;BME280;59408;51.032;9.410;2023-01-29T11:20:28;100086.78;;;-1.93;85.50
71573;BME280;59408;51.032;9.410;2023-01-29T11:22:56;100078.19;;;-1.71;84.79
71573;BME280;59408;51.032;9.410;2023-01-29T11:25:23;100081.53;;;-1.53;85.42
71573;BME280;59408;51.032;9.410;2023-01-29T11:27:54;100074.91;;;-1.50;84.30
71573;BME280;59408;51.032;9.410;2023-01-29T11:30:24;100081.53;;;-1.53;83.97
71573;BME280;59408;51.032;9.410;2023-01-29T11:32:58;100072.97;;;-1.55;84.53
71573;BME280;59408;51.032;9.410;2023-01-29T11:35:26;100068.97;;;-1.41;84.72
71573;BME280;59408;51.032;9.410;2023-01-29T11:38:06;100067.69;;;-1.38;84.36
71573;BME280;59408;51.032;9.410;2023-01-29T11:40:38;100049.34;;;-1.46;83.77
71573;BME280;59408;51.032;9.410;2023-01-29T11:43:17;100043.84;;;-1.40;84.46
71573;BME280;59408;51.032;9.410;2023-01-29T11:45:44;100035.59;;;-1.38;84.37
71573;BME280;59408;51.032;9.410;2023-01-29T11:48:14;100038.47;;;-1.28;84.64
71573;BME280;59408;51.032;9.410;2023-01-29T11:50:42;100038.28;;;-1.50;84.36
71573;BME280;59408;51.032;9.410;2023-01-29T11:53:22;100035.50;;;-1.55;84.93
71573;BME280;59408;51.032;9.410;2023-01-29T11:55:50;100026.41;;;-1.54;84.89
71573;BME280;59408;51.032;9.410;2023-01-29T11:58:22;100024.09;;;-1.62;85.14
71573;BME280;59408;51.032;9.410;2023-01-29T12:00:52;100014.81;;;-1.59;85.87
71573;BME280;59408;51.032;9.410;2023-01-29T12:03:21;100021.66;;;-1.52;84.83
71573;BME280;59408;51.032;9.410;2023-01-29T12:05:55;100020.22;;;-1.43;84.95
71573;BME280;59408;51.032;9.410;2023-01-29T12:08:24;100015.66;;;-1.19;84.53
71573;BME280;59408;51.032;9.410;2023-01-29T12:10:50;100011.25;;;-0.96;83.70
71573;BME280;59408;51.032;9.410;2023-01-29T12:13:33;100018.31;;;-0.90;83.25
71573;BME280;59408;51.032;9.410;2023-01-29T12:16:21;100020.72;;;-0.77;82.98
71573;BME280;59408;51.032;9.410;2023-01-29T12:18:53;100017.44;;;-0.79;82.31
71573;BME280;59408;51.032;9.410;2023-01-29T12:21:29;100009.78;;;-0.59;82.29
71573;BME280;59408;51.032;9.410;2023-01-29T12:24:04;100013.84;;;-0.56;81.75
71573;BME280;59408;51.032;9.410;2023-01-29T12:26:38;100020.84;;;-0.55;81.79
71573;BME280;59408;51.032;9.410;2023-01-29T12:29:16;100013.72;;;-0.78;81.81
71573;BME280;59408;51.032;9.410;2023-01-29T12:31:49;100015.75;;;-0.85;82.20
71573;BME280;59408;51.032;9.410;2023-01-29T12:34:23;100002.00;;;-0.89;82.54
71573;BME280;59408;51.032;9.410;2023-01-29T12:36:55;100004.41;;;-0.76;81.67
71573;BME280;59408;51.032;9.410;2023-01-29T12:39:24;100000.91;;;-0.76;82.53
71573;BME280;59408;51.032;9.410;2023-01-29T12:41:55;99997.41;;;-0.77;82.85
71573;BME280;59408;51.032;9.410;2023-01-29T12:44:29;99984.88;;;-0.88;82.40
71573;BME280;59408;51.032;9.410;2023-01-29T12:46:59;99982.78;;;-0.86;82.06
71573;BME280;59408;51.032;9.410;2023-01-29T12:49:32;99974.75;;;-0.86;82.08
71573;BME280;59408;51.032;9.410;2023-01-29T12:52:03;99973.09;;;-1.04;82.61
71573;BME280;59408;51.032;9.410;2023-01-29T12:54:36;99966.94;;;-1.04;83.27
71573;BME280;59408;51.032;9.410;2023-01-29T12:57:09;99961.72;;;-1.11;83.14
71573;BME280;59408;51.032;9.410;2023-01-29T12:59:44;99960.28;;;-1.02;83.53
71573;BME280;59408;51.032;9.410;2023-01-29T13:02:28;99956.06;;;-0.97;83.51
71573;BME280;59408;51.032;9.410;2023-01-29T13:05:00;99961.09;;;-1.01;83.19